Time;durP1;ratioP1;P1;durP2;ratioP2;P2;SDS_P1;SDS_P2;PMS_P1;PMS_P2;Temp;Humidity;BMP_temperature;BMP_pressure;BME280_temperature;BME280_humidity;BME280_pressure;Samples;Min_cycle;Max_cycle;Signal;HPM_P1;HPM_P2
2023/05/21 00:00:09;;;;;;;10.23;7.10;;;13.60;99.90;;;;;;4162154;28;20139;-67
2023/05/21 00:02:10;;;;;;;12.63;7.55;;;13.50;99.90;;;;;;4161731;28;20049;-68
2023/05/21 00:04:11;;;;;;;12.00;8.10;;;13.50;99.90;;;;;;4162411;28;20374;-69
2023/05/21 00:06:14;;;;;;;12.27;8.03;;;13.50;99.90;;;;;;4161425;28;20049;-61
2023/05/21 00:08:15;;;;;;;15.40;8.15;;;13.50;99.90;;;;;;4163739;28;20029;-63
2023/05/21 00:10:16;;;;;;;10.63;8.57;;;13.50;99.90;;;;;;4161963;28;20029;-57
2023/05/21 00:12:17;;;;;;;10.60;7.60;;;13.50;99.90;;;;;;4162622;28;20528;-69
2023/05/21 00:14:18;;;;;;;12.27;7.32;;;13.50;99.90;;;;;;4161465;28;20064;-69
2023/05/21 00:16:20;;;;;;;15.25;8.35;;;13.50;99.90;;;;;;4163088;28;20080;-57
2023/05/21 00:18:24;;;;;;;10.13;7.67;;;13.50;99.90;;;;;;4161394;28;20407;-69
2023/05/21 00:20:25;;;;;;;8.83;7.47;;;13.40;99.90;;;;;;4162041;28;20160;-70
2023/05/21 00:22:26;;;;;;;14.57;7.60;;;13.40;99.90;;;;;;4145024;28;20042;-63
2023/05/21 00:24:28;;;;;;;13.23;7.50;;;13.40;99.90;;;;;;4146558;28;20030;-71
2023/05/21 00:26:29;;;;;;;10.80;7.73;;;13.40;99.90;;;;;;4145604;28;20499;-70
2023/05/21 00:28:30;;;;;;;12.70;7.43;;;13.40;99.90;;;;;;4146102;28;20108;-60
2023/05/21 00:30:31;;;;;;;14.57;7.40;;;13.30;99.90;;;;;;4146019;28;20429;-60
2023/05/21 00:32:32;;;;;;;9.37;7.43;;;13.30;99.90;;;;;;4145624;28;20042;-56
2023/05/21 00:34:34;;;;;;;14.70;7.73;;;13.30;99.90;;;;;;4146004;28;20046;-64
2023/05/21 00:36:35;;;;;;;11.63;8.57;;;13.30;99.90;;;;;;4145085;28;20728;-71
2023/05/21 00:38:36;;;;;;;13.07;8.87;;;13.20;99.90;;;;;;4146612;28;20025;-70
2023/05/21 00:40:40;;;;;;;16.33;8.27;;;13.10;99.90;;;;;;4145157;28;20054;-64
2023/05/21 00:42:41;;;;;;;12.83;8.00;;;13.10;99.90;;;;;;4146314;28;20042;-70
2023/05/21 00:44:45;;;;;;;11.10;7.87;;;13.10;99.90;;;;;;4145153;28;20077;-71
2023/05/21 00:46:47;;;;;;;11.00;8.10;;;13.10;99.90;;;;;;4146373;28;20030;-65
2023/05/21 00:48:49;;;;;;;9.93;7.77;;;13.10;99.90;;;;;;4145193;28;20457;-69
2023/05/21 00:50:51;;;;;;;12.13;7.60;;;13.00;99.90;;;;;;4145887;28;20029;-70
2023/05/21 00:52:53;;;;;;;12.67;7.70;;;13.00;99.90;;;;;;4145111;28;20033;-56
2023/05/21 00:54:54;;;;;;;11.60;7.73;;;12.90;99.90;;;;;;4145949;28;20509;-57
2023/05/21 00:56:56;;;;;;;11.70;7.83;;;12.90;99.90;;;;;;4144782;28;20030;-62
2023/05/21 00:58:58;;;;;;;12.73;7.50;;;12.90;99.90;;;;;;4145939;28;20044;-69
2023/05/21 01:01:05;;;;;;;10.63;7.23;;;12.80;99.90;;;;;;4145034;28;20042;-58
2023/05/21 01:03:07;;;;;;;12.90;7.70;;;12.80;99.90;;;;;;4145671;28;20072;-66
2023/05/21 01:05:08;;;;;;;8.67;7.03;;;12.80;99.90;;;;;;4144980;28;20363;-70
2023/05/21 01:07:09;;;;;;;9.47;7.80;;;12.80;99.90;;;;;;4144716;28;20042;-69
2023/05/21 01:09:11;;;;;;;10.03;7.40;;;12.80;99.90;;;;;;4146020;28;20026;-58
2023/05/21 01:11:13;;;;;;;12.33;9.13;;;12.70;99.90;;;;;;4144734;28;20057;-58
2023/05/21 01:13:15;;;;;;;12.07;8.00;;;12.70;99.90;;;;;;4145641;28;20057;-71
2023/05/21 01:15:16;;;;;;;14.77;8.50;;;12.70;99.90;;;;;;4144788;28;20030;-62
2023/05/21 01:17:22;;;;;;;11.33;7.77;;;12.70;99.90;;;;;;4145896;28;20042;-64
2023/05/21 01:19:24;;;;;;;13.13;8.63;;;12.70;99.90;;;;;;4144525;28;20041;-58
2023/05/21 01:21:28;;;;;;;10.47;8.03;;;12.70;99.90;;;;;;4153290;28;20053;-57
2023/05/21 01:23:29;;;;;;;12.13;8.47;;;12.70;99.90;;;;;;4160227;28;20037;-54
2023/05/21 01:25:30;;;;;;;10.67;7.97;;;12.70;99.90;;;;;;4161499;28;20045;-55
2023/05/21 01:27:31;;;;;;;10.83;7.60;;;12.70;99.90;;;;;;4160871;28;20774;-58
2023/05/21 01:29:33;;;;;;;11.23;7.73;;;12.70;99.90;;;;;;4162058;28;20079;-68
2023/05/21 01:31:47;;;;;;;11.33;8.37;;;12.70;99.90;;;;;;4160519;28;20029;-64
2023/05/21 01:33:50;;;;;;;11.60;7.53;;;12.70;99.90;;;;;;4161087;28;20059;-69
2023/05/21 01:36:15;;;;;;;11.27;7.77;;;12.70;99.90;;;;;;4159966;28;20033;-71
2023/05/21 01:38:40;;;;;;;11.30;7.60;;;12.70;99.90;;;;;;4162297;28;20477;-66
2023/05/21 01:40:46;;;;;;;15.70;8.53;;;12.60;99.90;;;;;;4160686;28;20030;-72
2023/05/21 01:42:47;;;;;;;13.40;7.53;;;12.50;99.90;;;;;;4161848;28;20037;-67
2023/05/21 01:44:53;;;;;;;13.40;7.90;;;12.50;99.90;;;;;;4160318;28;20045;-69
2023/05/21 01:46:56;;;;;;;13.67;8.17;;;12.50;99.90;;;;;;4161311;28;20087;-71
2023/05/21 01:48:57;;;;;;;13.77;8.10;;;12.40;99.90;;;;;;4160645;28;20037;-69
2023/05/21 01:51:02;;;;;;;10.87;7.93;;;12.40;99.90;;;;;;4161545;28;20034;-69
2023/05/21 01:53:04;;;;;;;11.90;7.90;;;12.40;99.90;;;;;;4160051;28;20056;-69
2023/05/21 01:55:06;;;;;;;10.77;7.53;;;12.40;99.90;;;;;;4160852;28;20438;-72
2023/05/21 01:57:07;;;;;;;10.67;7.50;;;12.40;99.90;;;;;;4160253;28;20045;-67
2023/05/21 01:59:08;;;;;;;9.20;7.80;;;12.40;99.90;;;;;;4161184;28;20084;-70
2023/05/21 02:01:10;;;;;;;13.57;8.13;;;12.40;99.90;;;;;;4161208;28;20084;-70
2023/05/21 02:03:15;;;;;;;9.87;7.63;;;12.40;99.90;;;;;;4160065;28;20111;-71
2023/05/21 02:05:16;;;;;;;12.63;8.37;;;12.40;99.90;;;;;;4160767;28;20108;-71
2023/05/21 02:07:18;;;;;;;10.57;7.67;;;12.40;99.90;;;;;;4160347;28;20033;-68
2023/05/21 02:09:20;;;;;;;11.30;8.40;;;12.40;99.90;;;;;;4161451;28;20037;-70
2023/05/21 02:11:21;;;;;;;11.27;8.43;;;12.40;99.90;;;;;;4160473;28;20095;-69
2023/05/21 02:13:23;;;;;;;12.27;8.57;;;12.40;99.90;;;;;;4161011;28;20068;-71
2023/05/21 02:15:25;;;;;;;12.03;7.80;;;12.40;99.90;;;;;;4159800;28;20049;-70
2023/05/21 02:17:29;;;;;;;10.47;8.20;;;12.30;99.90;;;;;;4161251;28;20549;-68
2023/05/21 02:19:30;;;;;;;9.63;7.97;;;12.30;99.90;;;;;;4160381;28;20466;-70
2023/05/21 02:21:31;;;;;;;11.00;7.23;;;12.30;99.90;;;;;;4143454;28;20054;-62
2023/05/21 02:23:32;;;;;;;10.07;7.40;;;12.20;99.90;;;;;;4160097;28;20925;-58
2023/05/21 02:25:34;;;;;;;11.80;8.30;;;12.20;99.90;;;;;;4143269;28;20049;-69
2023/05/21 02:27:36;;;;;;;11.53;7.63;;;12.20;99.90;;;;;;4160543;28;20137;-60
2023/05/21 02:29:37;;;;;;;10.73;6.97;;;12.20;99.90;;;;;;4160243;28;20095;-69
2023/05/21 02:31:38;;;;;;;12.83;7.67;;;12.20;99.90;;;;;;4160329;28;20034;-57
2023/05/21 02:33:40;;;;;;;10.83;6.37;;;12.20;99.90;;;;;;4160314;28;20083;-56
2023/05/21 02:35:42;;;;;;;12.97;7.23;;;12.20;99.90;;;;;;4162865;28;20076;-70
2023/05/21 02:37:44;;;;;;;12.17;7.37;;;12.20;99.90;;;;;;4163559;28;20025;-70
2023/05/21 02:39:45;;;;;;;12.63;7.00;;;12.20;99.90;;;;;;4164168;28;20041;-66
2023/05/21 02:41:46;;;;;;;11.23;6.73;;;12.20;99.90;;;;;;4162929;28;20045;-68
2023/05/21 02:43:47;;;;;;;9.87;6.87;;;12.20;99.90;;;;;;4164481;28;20673;-65
2023/05/21 02:45:50;;;;;;;11.40;7.47;;;12.20;99.90;;;;;;4163049;28;20084;-71
2023/05/21 02:47:51;;;;;;;11.23;6.73;;;12.20;99.90;;;;;;4163797;28;20144;-71
2023/05/21 02:49:53;;;;;;;9.60;6.87;;;12.20;99.90;;;;;;4162895;28;20049;-70
2023/05/21 02:51:54;;;;;;;10.47;6.90;;;12.20;99.90;;;;;;4163972;28;20478;-70
2023/05/21 02:53:56;;;;;;;9.67;6.93;;;12.10;99.90;;;;;;4163272;28;20021;-69
2023/05/21 02:55:57;;;;;;;10.80;7.23;;;12.10;99.90;;;;;;4164291;28;20076;-65
2023/05/21 02:57:58;;;;;;;13.70;7.10;;;12.10;99.90;;;;;;4162662;28;20444;-55
2023/05/21 02:59:59;;;;;;;10.30;7.23;;;12.10;99.90;;;;;;4163449;28;20095;-71
2023/05/21 03:02:00;;;;;;;9.07;6.67;;;12.10;99.90;;;;;;4163370;28;20104;-70
2023/05/21 03:04:01;;;;;;;11.60;6.90;;;12.10;99.90;;;;;;4163684;28;20041;-56
2023/05/21 03:06:03;;;;;;;8.27;6.40;;;12.20;99.90;;;;;;4163216;28;20045;-61
2023/05/21 03:08:04;;;;;;;15.30;7.70;;;12.20;99.90;;;;;;4162744;28;20067;-67
2023/05/21 03:10:05;;;;;;;9.73;7.03;;;12.20;99.90;;;;;;4164452;28;20033;-58
2023/05/21 03:12:07;;;;;;;15.83;8.13;;;12.20;99.90;;;;;;4162260;28;20029;-69
2023/05/21 03:14:09;;;;;;;10.83;7.50;;;12.20;99.90;;;;;;4162970;28;20489;-53
2023/05/21 03:16:10;;;;;;;13.53;6.93;;;12.20;99.90;;;;;;4162157;28;20041;-55
2023/05/21 03:18:11;;;;;;;12.07;6.63;;;12.20;99.90;;;;;;4164015;28;20079;-69
2023/05/21 03:20:15;;;;;;;12.40;7.43;;;12.20;99.90;;;;;;4162025;28;20057;-70
2023/05/21 03:22:18;;;;;;;10.23;7.40;;;12.20;99.90;;;;;;4163630;28;20042;-71
2023/05/21 03:24:19;;;;;;;8.20;6.83;;;12.30;99.90;;;;;;4162102;28;20041;-55
2023/05/21 03:26:21;;;;;;;12.60;7.90;;;12.30;99.90;;;;;;4163395;28;20103;-63
2023/05/21 03:28:22;;;;;;;13.67;7.03;;;12.50;99.90;;;;;;4162585;28;20029;-67
2023/05/21 03:30:23;;;;;;;10.70;7.57;;;12.70;99.90;;;;;;4163585;28;20036;-58
2023/05/21 03:32:24;;;;;;;9.83;7.57;;;13.00;99.90;;;;;;4163031;28;20029;-54
2023/05/21 03:34:25;;;;;;;10.40;7.70;;;13.20;99.90;;;;;;4162440;28;20050;-57
2023/05/21 03:36:27;;;;;;;10.33;7.07;;;13.50;99.90;;;;;;4162964;28;20452;-71
2023/05/21 03:38:28;;;;;;;7.73;6.40;;;13.90;99.90;;;;;;4162001;28;20095;-58
2023/05/21 03:40:29;;;;;;;11.23;6.57;;;14.20;99.90;;;;;;4163746;28;20037;-56
2023/05/21 03:42:30;;;;;;;8.93;6.47;;;14.30;99.90;;;;;;4144113;28;20490;-70
2023/05/21 03:44:31;;;;;;;6.73;5.53;;;14.40;99.90;;;;;;4163051;28;20088;-71
2023/05/21 03:46:32;;;;;;;7.67;5.33;;;14.40;99.90;;;;;;4161745;28;20493;-70
2023/05/21 03:48:34;;;;;;;11.20;6.23;;;14.60;99.90;;;;;;4163521;28;20425;-67
2023/05/21 03:50:35;;;;;;;10.00;6.97;;;15.00;99.90;;;;;;4162180;28;20030;-70
2023/05/21 03:52:36;;;;;;;10.80;5.80;;;15.40;99.90;;;;;;4162789;28;20037;-71
2023/05/21 03:54:37;;;;;;;6.82;5.40;;;15.70;99.90;;;;;;4162397;28;20076;-70
2023/05/21 03:56:39;;;;;;;7.82;5.90;;;16.00;99.90;;;;;;4162771;28;20444;-69
2023/05/21 03:58:40;;;;;;;7.45;5.00;;;16.30;99.90;;;;;;4161436;28;20083;-61
2023/05/21 04:00:41;;;;;;;9.05;5.57;;;16.50;99.90;;;;;;4163106;28;20457;-57
2023/05/21 04:02:42;;;;;;;6.45;5.03;;;16.60;99.90;;;;;;4161821;28;20095;-67
2023/05/21 04:04:44;;;;;;;9.57;5.40;;;16.80;99.90;;;;;;4162844;28;20088;-71
2023/05/21 04:06:45;;;;;;;8.65;4.65;;;17.10;99.90;;;;;;4162582;28;20051;-71
2023/05/21 04:08:46;;;;;;;5.57;4.57;;;17.20;99.90;;;;;;4161871;28;20038;-56
2023/05/21 04:10:48;;;;;;;6.88;4.85;;;17.40;99.90;;;;;;4162551;28;20049;-63
2023/05/21 04:12:51;;;;;;;7.40;4.25;;;17.60;99.90;;;;;;4161654;28;20041;-72
2023/05/21 04:14:52;;;;;;;6.35;4.32;;;17.80;99.90;;;;;;4163246;28;20029;-71
2023/05/21 04:16:53;;;;;;;5.82;4.35;;;17.90;99.90;;;;;;4161185;28;20445;-57
2023/05/21 04:18:54;;;;;;;7.78;4.25;;;18.00;99.90;;;;;;4162414;28;20068;-60
2023/05/21 04:20:55;;;;;;;7.07;4.47;;;18.40;99.90;;;;;;4160829;28;20045;-70
2023/05/21 04:22:56;;;;;;;6.85;4.20;;;18.80;99.90;;;;;;4162424;28;20041;-71
2023/05/21 04:24:58;;;;;;;7.90;4.10;;;19.20;99.90;;;;;;4161770;28;20115;-70
2023/05/21 04:27:00;;;;;;;7.22;4.22;;;19.40;99.90;;;;;;4161855;28;20111;-70
2023/05/21 04:29:04;;;;;;;8.15;4.30;;;19.50;99.90;;;;;;4161064;28;20045;-71
2023/05/21 04:31:07;;;;;;;5.68;4.70;;;19.50;99.90;;;;;;4162875;28;20056;-72
2023/05/21 04:33:08;;;;;;;6.55;4.43;;;19.40;99.90;;;;;;4160827;28;20449;-70
2023/05/21 04:35:10;;;;;;;7.03;4.63;;;19.50;99.90;;;;;;4162535;28;20420;-71
2023/05/21 04:37:12;;;;;;;4.78;3.80;;;19.50;99.90;;;;;;4161063;28;20041;-67
2023/05/21 04:39:14;;;;;;;5.88;4.45;;;19.70;99.90;;;;;;4161413;28;20531;-68
2023/05/21 04:41:17;;;;;;;4.90;4.28;;;20.10;99.90;;;;;;4162617;28;20075;-71
2023/05/21 04:43:24;;;;;;;6.32;4.20;;;20.40;99.90;;;;;;4161904;28;20025;-69
2023/05/21 04:45:26;;;;;;;5.57;4.45;;;20.70;99.90;;;;;;4161624;28;20539;-70
2023/05/21 04:47:34;;;;;;;7.47;3.80;;;21.20;99.90;;;;;;4160698;28;20037;-68
2023/05/21 04:49:35;;;;;;;5.15;4.43;;;21.40;99.90;;;;;;4161662;28;20494;-70
2023/05/21 04:51:39;;;;;;;4.70;3.60;;;21.60;99.90;;;;;;4160278;28;20038;-71
2023/05/21 04:53:41;;;;;;;6.20;4.00;;;21.90;99.90;;;;;;4162535;28;20457;-71
2023/05/21 04:55:42;;;;;;;5.68;3.63;;;22.20;99.90;;;;;;4160593;28;20380;-71
2023/05/21 04:57:43;;;;;;;4.90;3.75;;;22.40;99.90;;;;;;4161906;28;20029;-70
2023/05/21 04:59:45;;;;;;;4.05;3.42;;;22.60;99.90;;;;;;4142899;28;20088;-62
2023/05/21 05:01:47;;;;;;;4.72;3.67;;;22.90;99.90;;;;;;4161603;28;20049;-70
2023/05/21 05:03:48;;;;;;;5.95;4.22;;;23.10;99.90;;;;;;4160520;28;20159;-70
2023/05/21 05:05:50;;;;;;;4.18;3.30;;;23.40;99.90;;;;;;4161322;28;20033;-70
2023/05/21 05:07:51;;;;;;;5.68;4.10;;;23.60;99.90;;;;;;4160964;28;20033;-71
2023/05/21 05:09:52;;;;;;;7.75;4.28;;;23.70;99.90;;;;;;4161587;28;20627;-72
2023/05/21 05:11:53;;;;;;;4.30;3.80;;;23.90;99.90;;;;;;4161047;28;20045;-72
2023/05/21 05:13:54;;;;;;;8.73;4.13;;;24.20;99.90;;;;;;4161288;28;20119;-72
2023/05/21 05:15:56;;;;;;;5.22;4.05;;;24.50;99.90;;;;;;4161764;28;20033;-71
2023/05/21 05:17:57;;;;;;;6.22;3.85;;;24.70;99.90;;;;;;4161335;28;20582;-72
2023/05/21 05:19:58;;;;;;;6.05;4.15;;;24.80;99.50;;;;;;4161397;28;20045;-71
2023/05/21 05:21:59;;;;;;;6.10;3.70;;;24.70;99.20;;;;;;4159841;28;20053;-70
2023/05/21 05:24:01;;;;;;;3.80;3.50;;;24.70;99.00;;;;;;4161483;28;20084;-63
2023/05/21 05:26:02;;;;;;;5.00;3.60;;;24.80;98.70;;;;;;4160100;28;20050;-57
2023/05/21 05:28:03;;;;;;;6.68;5.00;;;25.20;98.40;;;;;;4161190;28;20037;-59
2023/05/21 05:30:05;;;;;;;6.13;4.35;;;25.50;97.90;;;;;;4160886;28;20092;-57
2023/05/21 05:32:06;;;;;;;7.38;4.10;;;25.40;97.40;;;;;;4161210;28;20092;-58
2023/05/21 05:34:07;;;;;;;6.78;3.83;;;25.60;97.20;;;;;;4160335;28;20440;-54
2023/05/21 05:36:09;;;;;;;6.70;4.63;;;25.90;96.70;;;;;;4161841;28;20037;-57
2023/05/21 05:38:10;;;;;;;7.75;3.83;;;26.20;96.30;;;;;;4159937;28;20074;-59
2023/05/21 05:40:12;;;;;;;6.10;3.28;;;26.50;95.50;;;;;;4161837;28;20049;-59
2023/05/21 05:42:13;;;;;;;3.67;3.35;;;26.50;95.40;;;;;;4160193;28;20050;-57
2023/05/21 05:44:15;;;;;;;5.63;3.80;;;;;;;;;;4160821;28;20440;-59
2023/05/21 05:46:16;;;;;;;4.30;3.90;;;;;;;;;;4161080;28;20029;-61
2023/05/21 05:48:18;;;;;;;6.82;4.03;;;;;;;;;;4160430;28;20033;-68
2023/05/21 05:50:19;;;;;;;4.28;3.65;;;;;;;;;;4160943;28;20049;-56
2023/05/21 05:52:21;;;;;;;9.98;4.22;;;;;;;;;;4141970;28;20076;-56
2023/05/21 05:54:22;;;;;;;6.55;3.38;;;26.80;94.90;;;;;;4161341;28;20017;-68
2023/05/21 05:56:23;;;;;;;4.10;3.35;;;27.60;92.90;;;;;;4159838;28;20703;-67
2023/05/21 05:58:24;;;;;;;3.58;3.28;;;27.40;92.30;;;;;;4160740;28;20088;-69
2023/05/21 06:00:25;;;;;;;4.55;3.80;;;27.50;92.50;;;;;;4160400;28;20095;-63
2023/05/21 06:02:27;;;;;;;5.43;3.22;;;27.20;91.90;;;;;;4161687;28;20041;-71
2023/05/21 06:04:28;;;;;;;5.28;3.55;;;26.90;92.40;;;;;;4160454;28;20058;-63
2023/05/21 06:06:30;;;;;;;5.97;4.28;;;26.80;92.10;;;;;;4160848;28;20042;-67
2023/05/21 06:08:33;;;;;;;10.50;4.70;;;26.30;92.80;;;;;;4142164;28;20042;-63
2023/05/21 06:10:34;;;;;;;7.75;4.38;;;26.40;92.60;;;;;;4162539;28;20080;-69
2023/05/21 06:12:36;;;;;;;14.63;5.60;;;26.00;92.60;;;;;;4163255;28;20133;-67
2023/05/21 06:14:37;;;;;;;10.35;4.35;;;26.40;92.50;;;;;;4164538;28;20465;-59
2023/05/21 06:16:38;;;;;;;27.23;6.40;;;27.10;92.10;;;;;;4163680;28;20033;-64
2023/05/21 06:18:39;;;;;;;8.38;4.05;;;27.40;91.40;;;;;;4164022;28;20904;-70
2023/05/21 06:20:40;;;;;;;12.73;5.35;;;;;;;;;;4163916;28;20432;-66
2023/05/21 06:22:42;;;;;;;16.77;5.50;;;;;;;;;;4163234;28;20049;-68
2023/05/21 06:24:43;;;;;;;25.35;6.15;;;27.50;91.00;;;;;;4164171;28;20424;-64
2023/05/21 06:26:44;;;;;;;13.75;6.70;;;26.70;90.60;;;;;;4163639;28;20029;-68
2023/05/21 06:28:45;;;;;;;21.30;5.50;;;26.30;91.40;;;;;;4163800;28;20049;-58
2023/05/21 06:30:46;;;;;;;26.67;5.55;;;26.60;91.20;;;;;;4163454;28;20021;-58
2023/05/21 06:32:48;;;;;;;24.88;5.90;;;26.20;90.90;;;;;;4164062;28;20123;-58
2023/05/21 06:34:49;;;;;;;26.58;5.40;;;25.60;90.80;;;;;;4163323;28;20076;-57
2023/05/21 06:36:50;;;;;;;26.27;6.63;;;25.20;91.40;;;;;;4163834;28;20517;-57
2023/05/21 06:38:51;;;;;;;24.02;4.50;;;25.40;91.40;;;;;;4163317;28;20470;-60
2023/05/21 06:40:52;;;;;;;23.27;4.97;;;24.90;91.50;;;;;;4164196;28;20052;-65
2023/05/21 06:42:55;;;;;;;17.83;4.28;;;24.60;91.70;;;;;;4162919;28;20463;-56
2023/05/21 06:44:56;;;;;;;10.73;3.90;;;24.40;92.10;;;;;;4163138;28;20049;-59
2023/05/21 06:46:57;;;;;;;17.52;4.47;;;24.70;92.00;;;;;;4163186;28;20460;-66
2023/05/21 06:48:59;;;;;;;19.48;4.15;;;25.10;91.70;;;;;;4163088;28;20135;-59
2023/05/21 06:51:00;;;;;;;13.75;3.83;;;25.50;91.60;;;;;;4162989;28;20091;-58
2023/05/21 06:53:02;;;;;;;15.02;3.92;;;26.00;91.60;;;;;;4162838;28;20091;-67
2023/05/21 06:55:03;;;;;;;12.25;3.53;;;26.50;90.90;;;;;;4164033;28;20029;-58
2023/05/21 06:57:04;;;;;;;6.38;3.00;;;26.80;90.70;;;;;;4162019;28;20490;-58
2023/05/21 06:59:05;;;;;;;7.88;3.40;;;26.40;90.30;;;;;;4164091;28;20025;-63
2023/05/21 07:01:07;;;;;;;8.05;3.50;;;25.40;90.40;;;;;;4161830;28;20045;-69
2023/05/21 07:03:08;;;;;;;9.57;3.55;;;24.70;91.00;;;;;;4163587;28;20441;-60
2023/05/21 07:05:09;;;;;;;12.07;3.30;;;24.60;91.40;;;;;;4162912;28;20029;-67
2023/05/21 07:07:10;;;;;;;11.00;3.20;;;24.90;91.60;;;;;;4163777;28;20433;-66
2023/05/21 07:09:11;;;;;;;12.40;3.60;;;25.40;91.50;;;;;;4162358;28;20029;-66
2023/05/21 07:11:12;;;;;;;6.38;3.22;;;25.90;91.00;;;;;;4163721;28;20127;-67
2023/05/21 07:13:14;;;;;;;8.55;2.78;;;26.60;90.60;;;;;;4162503;28;21017;-58
2023/05/21 07:15:16;;;;;;;6.35;2.90;;;26.80;90.40;;;;;;4162950;28;20095;-62
2023/05/21 07:17:17;;;;;;;5.47;3.15;;;26.60;89.90;;;;;;4161999;28;20033;-69
2023/05/21 07:19:18;;;;;;;7.55;3.17;;;26.00;89.80;;;;;;4162428;28;20029;-58
2023/05/21 07:21:19;;;;;;;4.38;2.47;;;25.30;90.10;;;;;;4161385;28;20412;-57
2023/05/21 07:23:20;;;;;;;4.60;2.80;;;24.70;90.60;;;;;;4162454;28;20029;-58
2023/05/21 07:25:21;;;;;;;6.95;2.70;;;24.30;91.10;;;;;;4163478;28;20083;-57
2023/05/21 07:27:22;;;;;;;4.43;2.75;;;24.30;91.60;;;;;;4162001;28;20099;-67
2023/05/21 07:29:23;;;;;;;3.67;3.35;;;24.30;91.70;;;;;;4163404;28;20491;-63
2023/05/21 07:31:25;;;;;;;3.95;3.38;;;24.20;91.90;;;;;;4161597;28;20119;-67
2023/05/21 07:33:27;;;;;;;4.88;3.53;;;24.00;92.10;;;;;;4162786;28;20042;-65
2023/05/21 07:35:28;;;;;;;5.07;3.00;;;23.80;92.40;;;;;;4161406;28;20103;-67
2023/05/21 07:37:29;;;;;;;6.13;3.60;;;23.70;92.80;;;;;;4163475;28;20452;-58
2023/05/21 07:39:30;;;;;;;5.03;3.00;;;23.60;92.90;;;;;;4161620;28;20046;-61
2023/05/21 07:41:31;;;;;;;7.13;4.07;;;23.60;92.80;;;;;;4162938;28;20551;-71
2023/05/21 07:43:32;;;;;;;3.75;2.78;;;23.60;92.80;;;;;;4162443;28;20524;-59
2023/05/21 07:45:34;;;;;;;5.18;3.58;;;23.80;93.00;;;;;;4163126;28;20033;-59
2023/05/21 07:47:35;;;;;;;3.20;2.90;;;24.00;92.90;;;;;;4162312;28;20029;-58
2023/05/21 07:49:36;;;;;;;5.18;3.45;;;24.00;93.10;;;;;;4162055;28;20116;-69
2023/05/21 07:51:37;;;;;;;8.30;3.10;;;24.00;92.90;;;;;;4144551;28;20096;-57
2023/05/21 07:53:38;;;;;;;5.72;3.45;;;24.00;92.70;;;;;;4161780;28;20481;-58
2023/05/21 07:55:46;;;;;;;4.75;3.30;;;23.90;92.90;;;;;;4162344;28;20029;-67
2023/05/21 07:57:48;;;;;;;3.63;3.25;;;23.50;93.00;;;;;;4161195;28;20477;-66
2023/05/21 07:59:49;;;;;;;4.15;3.08;;;23.40;93.00;;;;;;4162922;28;20540;-57
2023/05/21 08:01:51;;;;;;;4.72;3.15;;;23.30;93.10;;;;;;4161830;28;20029;-57
2023/05/21 08:03:52;;;;;;;4.65;3.70;;;23.40;93.10;;;;;;4163116;28;20084;-54
2023/05/21 08:05:53;;;;;;;3.78;3.10;;;23.30;93.00;;;;;;4161313;28;20041;-55
2023/05/21 08:07:54;;;;;;;6.35;3.53;;;23.50;93.20;;;;;;4162236;28;20478;-69
2023/05/21 08:09:55;;;;;;;3.35;2.90;;;23.60;93.30;;;;;;4161954;28;20025;-66
2023/05/21 08:11:57;;;;;;;10.25;3.85;;;23.40;93.40;;;;;;4162080;28;20025;-57
2023/05/21 08:13:58;;;;;;;4.53;3.80;;;23.30;93.70;;;;;;4161370;28;20037;-59
2023/05/21 08:15:59;;;;;;;6.90;4.28;;;23.10;94.10;;;;;;4162629;28;20017;-56
2023/05/21 08:18:00;;;;;;;4.28;3.20;;;23.30;94.10;;;;;;4160905;28;20033;-70
2023/05/21 08:20:02;;;;;;;3.80;3.05;;;23.30;94.10;;;;;;4162346;28;20109;-65
2023/05/21 08:22:05;;;;;;;3.42;3.13;;;23.40;94.10;;;;;;4161671;28;20091;-56
2023/05/21 08:24:06;;;;;;;7.60;3.33;;;23.80;94.00;;;;;;4161915;28;20523;-66
2023/05/21 08:26:08;;;;;;;4.15;3.20;;;24.20;93.80;;;;;;4161897;28;20466;-58
2023/05/21 08:28:09;;;;;;;3.70;3.08;;;24.30;93.70;;;;;;4161539;28;20060;-56
2023/05/21 08:30:10;;;;;;;5.28;3.33;;;23.90;93.60;;;;;;4162305;28;20091;-57
2023/05/21 08:32:11;;;;;;;4.45;3.20;;;23.60;93.90;;;;;;4161013;28;20041;-57
2023/05/21 08:34:12;;;;;;;10.48;3.60;;;23.50;94.00;;;;;;4161480;28;20440;-56
2023/05/21 08:36:13;;;;;;;3.60;3.30;;;23.30;94.20;;;;;;4160724;28;20079;-58
2023/05/21 08:38:17;;;;;;;3.53;3.22;;;23.20;94.40;;;;;;4162382;28;20029;-57
2023/05/21 08:40:19;;;;;;;5.95;3.50;;;23.10;94.50;;;;;;4160565;28;20041;-58
2023/05/21 08:42:35;;;;;;;5.47;4.15;;;23.00;95.00;;;;;;4162177;28;20041;-60
2023/05/21 08:44:43;;;;;;;4.80;2.97;;;22.90;94.60;;;;;;4160760;28;20084;-57
2023/05/21 08:46:47;;;;;;;6.40;3.58;;;23.00;94.90;;;;;;4162148;28;20097;-57
2023/05/21 08:48:50;;;;;;;4.07;3.10;;;23.20;94.70;;;;;;4160266;28;20037;-67
2023/05/21 08:50:52;;;;;;;3.10;2.80;;;23.10;94.40;;;;;;4161326;28;20057;-72
2023/05/21 08:52:54;;;;;;;5.05;3.80;;;23.20;94.60;;;;;;4160862;28;20060;-68
2023/05/21 08:54:55;;;;;;;6.60;3.38;;;23.20;94.60;;;;;;4161292;28;20095;-67
2023/05/21 08:56:58;;;;;;;4.07;3.25;;;23.40;94.50;;;;;;4160038;28;20473;-65
2023/05/21 08:59:00;;;;;;;3.80;3.22;;;23.50;94.40;;;;;;4160741;28;20087;-71
2023/05/21 09:01:03;;;;;;;5.70;3.17;;;23.70;94.10;;;;;;4143381;28;20096;-58
2023/05/21 09:03:09;;;;;;;4.07;3.55;;;23.80;93.30;;;;;;4161127;28;20037;-73
2023/05/21 09:05:11;;;;;;;6.38;3.30;;;23.60;92.90;;;;;;4160743;28;20033;-65
2023/05/21 09:07:13;;;;;;;6.82;3.08;;;23.70;92.90;;;;;;4160890;28;20033;-67
2023/05/21 09:09:24;;;;;;;4.25;3.00;;;23.90;92.80;;;;;;4161756;28;20033;-63
2023/05/21 09:11:25;;;;;;;8.20;3.10;;;23.90;92.70;;;;;;4160848;28;20025;-61
2023/05/21 09:13:30;;;;;;;10.35;3.10;;;23.90;92.60;;;;;;4161543;28;20114;-69
2023/05/21 09:15:31;;;;;;;4.25;2.53;;;24.00;92.50;;;;;;4160005;28;20524;-69
2023/05/21 09:17:32;;;;;;;7.03;2.83;;;24.00;92.00;;;;;;4161447;28;20041;-58
2023/05/21 09:19:33;;;;;;;4.38;3.30;;;23.90;92.00;;;;;;4160798;28;20071;-57
2023/05/21 09:21:34;;;;;;;6.00;2.97;;;24.00;92.10;;;;;;4160994;28;20045;-58
2023/05/21 09:23:36;;;;;;;3.95;2.88;;;24.00;91.30;;;;;;4159773;28;20041;-56
2023/05/21 09:25:38;;;;;;;10.45;3.03;;;24.00;90.80;;;;;;4161307;28;20437;-58
2023/05/21 09:27:39;;;;;;;8.18;3.08;;;23.80;91.40;;;;;;4159905;28;20397;-70
2023/05/21 09:29:41;;;;;;;3.50;2.67;;;23.80;91.50;;;;;;4161804;28;20694;-60
2023/05/21 09:31:43;;;;;;;3.72;2.75;;;23.80;91.60;;;;;;4159741;28;20473;-59
2023/05/21 09:33:46;;;;;;;4.13;2.85;;;23.70;91.70;;;;;;4161338;28;20462;-69
2023/05/21 09:35:49;;;;;;;3.58;2.90;;;23.90;92.00;;;;;;4159373;28;20037;-71
2023/05/21 09:37:52;;;;;;;4.70;3.22;;;24.20;92.10;;;;;;4160849;28;20025;-59
2023/05/21 09:39:53;;;;;;;4.22;2.78;;;24.50;91.90;;;;;;4160153;28;20041;-59
2023/05/21 09:41:57;;;;;;;4.35;3.15;;;24.50;91.70;;;;;;4160372;28;20516;-59
2023/05/21 09:44:00;;;;;;;8.80;3.17;;;24.20;91.70;;;;;;4161495;28;20025;-66
2023/05/21 09:46:01;;;;;;;4.63;2.92;;;23.90;91.90;;;;;;4159946;28;20135;-72
2023/05/21 09:48:02;;;;;;;8.63;3.47;;;23.90;91.90;;;;;;4161236;28;20033;-67
2023/05/21 09:50:04;;;;;;;8.88;3.72;;;23.90;92.10;;;;;;4159486;28;20080;-71
2023/05/21 09:52:05;;;;;;;3.70;2.92;;;23.90;92.20;;;;;;4161325;28;20079;-70
2023/05/21 09:54:10;;;;;;;4.82;3.00;;;24.10;92.30;;;;;;4160317;28;20100;-66
2023/05/21 09:56:11;;;;;;;6.18;3.00;;;24.20;92.00;;;;;;4160796;28;20045;-69
2023/05/21 09:58:13;;;;;;;3.15;2.83;;;24.00;92.10;;;;;;4159534;28;20111;-69
2023/05/21 10:00:16;;;;;;;3.42;3.13;;;24.20;91.80;;;;;;4160931;28;20095;-68
2023/05/21 10:02:22;;;;;;;3.83;2.83;;;24.20;91.40;;;;;;4160151;28;20493;-67
2023/05/21 10:04:24;;;;;;;5.85;3.10;;;24.30;90.80;;;;;;4160467;28;20111;-69
2023/05/21 10:06:30;;;;;;;7.43;2.85;;;24.50;90.60;;;;;;4141699;28;20089;-64
2023/05/21 10:08:35;;;;;;;3.13;2.75;;;24.50;90.50;;;;;;4161212;28;20843;-67
2023/05/21 10:10:39;;;;;;;3.03;2.72;;;24.50;90.20;;;;;;4160428;28;20057;-64
2023/05/21 10:12:46;;;;;;;3.03;2.67;;;24.20;90.50;;;;;;4161239;28;20022;-71
2023/05/21 10:14:53;;;;;;;4.53;2.35;;;24.20;90.60;;;;;;4159797;28;20035;-68
2023/05/21 10:16:55;;;;;;;3.00;2.70;;;24.20;90.50;;;;;;4160967;28;20045;-62
2023/05/21 10:18:57;;;;;;;3.75;2.58;;;24.20;90.50;;;;;;4160400;28;20033;-56
2023/05/21 10:21:00;;;;;;;9.05;3.22;;;24.30;90.70;;;;;;4159231;28;20038;-59
2023/05/21 10:23:02;;;;;;;4.03;3.22;;;24.30;90.80;;;;;;4160533;28;20049;-58
2023/05/21 10:25:05;;;;;;;4.13;2.97;;;24.30;90.90;;;;;;4160330;28;20079;-58
2023/05/21 10:27:06;;;;;;;4.25;3.00;;;24.30;90.90;;;;;;4160877;28;20083;-58
2023/05/21 10:29:08;;;;;;;4.78;2.75;;;24.20;91.10;;;;;;4159595;28;20091;-59
2023/05/21 10:31:10;;;;;;;3.20;2.90;;;24.30;91.00;;;;;;4160454;28;20441;-72
2023/05/21 10:33:15;;;;;;;3.35;3.05;;;24.30;90.90;;;;;;4158972;28;20037;-58